Portada
METAR-TAF:

METAR-TAF

Aeroports :

Bagdad, Iraq

latitud: 33-15-45N, longitud: 44-14-04E, altitud: 35 m

Observació

L'informe es va fer fa 58 minuts, a les 06:00 UTC
Vent 6 kt del Nord
Temperatura 24°C
Humitat 50%
Pressió 1010 hPa
Visibilitat 10 km o més
sense núvols per sota de 1500 mi sense presència de cumulonimbus.

METAR: ORBI 080600Z 01006KT CAVOK 24/13 Q1010 NOSIG

Hora: 09:58 (06:58 UTC)

Pronòstic

L'informe es va fer fa 8 hores i 58 minuts, a les 22:00 UTC
Pronòstic vàlid del 08 a les 00 UTC al 08 a les 24 UTC
Vent 3 kt amb direcció variable
Visibilitat: 7000 m
Núvols disperses a una alçada de 4000 ft

TAF: ORBI 072200Z 0800/0824 VRB03KT 7000 SCT040

Observacions i pronòstics meteorològics de més de 4000 aeroports (METAR i TAF).

Les estacions disponibles són els punts grocs i vermells al mapa.

Posi el ratolí al punt desitjat per veure el nom de l'estació.

Feu clic per veure les observacions i els pronòstics meteorològics.

Per canviar el mapa: feu clic els botons verds amb una creu de color negre per apropar; al botó verd amb un guió per allunyar la imatge; o en les fletxes verdes per a mapes adjacents.


METAR-TAF: